Time;durP1;ratioP1;P1;durP2;ratioP2;P2;SDS_P1;SDS_P2;PMS_P1;PMS_P2;Temp;Humidity;BMP_temperature;BMP_pressure;BME280_temperature;BME280_humidity;BME280_pressure;Samples;Min_cycle;Max_cycle;Signal;HPM_P1;HPM_P2
2023/08/13 00:01:29;;;;;;;9.38;2.45;;;;;;;16.05;86.79;101611.44;5011008;28;20034;-74
2023/08/13 00:03:55;;;;;;;5.53;2.20;;;;;;;16.02;87.53;101617.19;5029077;28;20025;-73
2023/08/13 00:06:21;;;;;;;6.10;2.30;;;;;;;16.00;86.06;101604.59;5028831;28;20037;-73
2023/08/13 00:08:46;;;;;;;14.25;2.63;;;;;;;16.00;86.96;101605.47;5027332;28;20385;-74
2023/08/13 00:11:12;;;;;;;13.90;2.67;;;;;;;15.95;86.89;101606.88;5028132;28;20036;-73
2023/08/13 00:13:38;;;;;;;7.90;2.60;;;;;;;15.90;86.82;101611.84;5029000;28;20037;-73
2023/08/13 00:16:04;;;;;;;3.75;2.25;;;;;;;15.85;88.95;101603.13;5012762;28;20404;-73
2023/08/13 00:18:29;;;;;;;8.07;2.38;;;;;;;15.84;89.17;101605.00;5008743;28;20041;-73
2023/08/13 00:20:55;;;;;;;5.47;2.15;;;;;;;15.79;89.52;101599.00;5015943;28;20397;-73
2023/08/13 00:23:20;;;;;;;9.35;2.65;;;;;;;15.75;89.35;101598.38;5007286;28;20454;-73
2023/08/13 00:25:46;;;;;;;7.38;2.63;;;;;;;15.68;90.17;101602.66;5006880;28;20057;-72
2023/08/13 00:28:11;;;;;;;8.63;2.72;;;;;;;15.62;89.36;101600.38;5008240;28;20425;-73
2023/08/13 00:30:36;;;;;;;8.95;2.67;;;;;;;15.59;90.75;101606.09;5007533;28;20413;-73
2023/08/13 00:33:02;;;;;;;5.00;2.50;;;;;;;15.59;90.02;101600.63;5008120;28;20444;-74
2023/08/13 00:35:27;;;;;;;7.28;2.60;;;;;;;15.56;89.41;101603.59;5007049;28;20485;-73
2023/08/13 00:37:53;;;;;;;9.15;2.83;;;;;;;15.55;89.91;101604.59;5006886;28;20052;-73
2023/08/13 00:40:18;;;;;;;6.03;2.28;;;;;;;15.55;89.13;101601.88;5011901;28;20497;-73
2023/08/13 00:42:44;;;;;;;11.52;2.92;;;;;;;15.55;89.64;101596.38;5006091;28;20039;-73
2023/08/13 00:45:09;;;;;;;8.73;3.22;;;;;;;15.53;90.54;101596.50;5026356;28;20028;-71
2023/08/13 00:47:36;;;;;;;5.13;2.58;;;;;;;15.50;90.65;101588.53;5009023;28;20041;-73
2023/08/13 00:50:05;;;;;;;8.93;2.85;;;;;;;15.46;91.34;101595.25;5026765;28;20030;-74
2023/08/13 00:52:32;;;;;;;8.75;2.60;;;;;;;15.41;91.50;101593.88;5026395;28;20686;-73
2023/08/13 00:54:58;;;;;;;10.20;2.80;;;;;;;15.37;91.11;101595.13;5026258;28;20045;-72
2023/08/13 00:57:23;;;;;;;10.98;3.13;;;;;;;15.34;90.86;101596.25;5023214;28;20040;-73
2023/08/13 00:59:50;;;;;;;14.80;2.65;;;;;;;15.29;90.66;101590.25;5007825;28;20061;-73
2023/08/13 01:02:15;;;;;;;7.68;2.53;;;;;;;15.27;90.63;101581.28;5016369;28;20039;-73
2023/08/13 01:04:41;;;;;;;6.13;2.70;;;;;;;15.29;90.83;101585.66;5026477;28;20520;-73
2023/08/13 01:07:58;;;;;;;9.85;3.20;;;;;;;15.33;90.13;101589.00;5028220;28;20404;-73
2023/08/13 01:10:37;;;;;;;7.60;2.40;;;;;;;15.26;91.16;101585.91;5000680;28;20095;-72
2023/08/13 01:13:13;;;;;;;7.82;2.35;;;;;;;15.27;91.22;101590.38;5024483;28;20127;-72
2023/08/13 01:15:42;;;;;;;12.52;2.92;;;;;;;15.23;91.60;101590.75;5027942;28;20034;-72
2023/08/13 01:18:09;;;;;;;12.77;3.28;;;;;;;15.22;91.59;101589.88;5010104;28;20148;-74
2023/08/13 01:20:39;;;;;;;10.63;3.53;;;;;;;15.19;91.97;101592.84;5007302;28;20049;-73
2023/08/13 01:23:04;;;;;;;8.82;2.72;;;;;;;15.19;91.61;101595.59;5007578;28;20089;-73
2023/08/13 01:25:30;;;;;;;11.50;2.33;;;;;;;15.18;91.48;101593.84;5006303;28;20025;-73
2023/08/13 01:28:15;;;;;;;7.88;2.58;;;;;;;15.19;90.83;101598.34;4988720;28;20477;-73
2023/08/13 01:30:52;;;;;;;10.90;2.67;;;;;;;15.18;91.21;101595.72;5006337;28;20038;-73
2023/08/13 01:33:27;;;;;;;9.15;2.80;;;;;;;15.14;91.96;101600.56;5007724;28;20141;-73
2023/08/13 01:36:01;;;;;;;10.88;2.75;;;;;;;15.13;90.88;101598.84;5006483;28;20120;-73
2023/08/13 01:38:27;;;;;;;7.93;2.35;;;;;;;15.02;91.89;101594.22;5007543;28;20069;-73
2023/08/13 01:40:53;;;;;;;7.03;2.53;;;;;;;15.03;92.51;101598.69;5006955;28;20105;-72
2023/08/13 01:43:18;;;;;;;7.47;2.35;;;;;;;15.01;92.28;101606.19;5012230;28;20037;-73
2023/08/13 01:45:44;;;;;;;8.85;2.50;;;;;;;14.98;92.35;101600.94;5027057;28;20539;-73
2023/08/13 01:48:09;;;;;;;7.35;2.63;;;;;;;14.96;92.72;101602.03;5009202;28;20068;-70
2023/08/13 01:50:38;;;;;;;8.93;2.10;;;;;;;14.93;93.16;101603.16;5006874;28;20406;-73
2023/08/13 01:53:04;;;;;;;7.30;2.50;;;;;;;14.94;92.89;101607.66;5022337;28;20049;-70
2023/08/13 01:55:29;;;;;;;8.80;2.30;;;;;;;14.94;92.61;101599.41;5026017;28;20120;-70
2023/08/13 01:57:54;;;;;;;7.03;2.95;;;;;;;14.94;92.60;101601.28;5025100;28;20044;-70
2023/08/13 02:00:20;;;;;;;6.63;2.50;;;;;;;14.92;92.99;101598.69;5024531;28;20033;-69
2023/08/13 02:02:46;;;;;;;8.52;2.25;;;;;;;14.93;93.44;101602.28;5012117;28;20033;-68
2023/08/13 02:05:11;;;;;;;12.07;2.72;;;;;;;14.92;93.61;101601.44;5007359;28;20033;-68
2023/08/13 02:07:37;;;;;;;8.73;2.25;;;;;;;14.93;93.36;101600.44;5007844;28;20040;-68
2023/08/13 02:10:03;;;;;;;9.45;2.40;;;;;;;14.90;93.21;101605.25;4989523;28;20466;-69
2023/08/13 02:12:28;;;;;;;10.00;2.67;;;;;;;14.86;94.19;101601.88;5006319;28;20509;-72
2023/08/13 02:14:54;;;;;;;8.32;2.13;;;;;;;14.84;93.80;101600.28;5007177;28;20030;-72
2023/08/13 02:17:19;;;;;;;9.88;2.50;;;;;;;14.82;94.28;101597.63;5011887;28;20044;-73
2023/08/13 02:19:45;;;;;;;7.30;3.83;;;;;;;14.80;94.16;101595.03;5005889;28;20026;-73
2023/08/13 02:22:11;;;;;;;10.55;2.38;;;;;;;14.80;93.95;101592.28;5007194;28;20130;-72
2023/08/13 02:24:37;;;;;;;10.18;2.95;;;;;;;14.80;95.09;101591.41;5006303;28;20112;-73
2023/08/13 02:27:02;;;;;;;8.13;2.80;;;;;;;14.79;95.05;101595.16;5021239;28;20413;-72
2023/08/13 02:29:30;;;;;;;6.07;2.25;;;;;;;14.80;94.48;101594.16;5025041;28;20485;-73
2023/08/13 02:31:55;;;;;;;13.80;2.90;;;;;;;14.79;95.33;101586.94;5017647;28;20034;-73
2023/08/13 02:34:23;;;;;;;8.55;2.38;;;;;;;14.75;95.64;101590.91;5005799;28;20477;-73
2023/08/13 02:36:48;;;;;;;8.00;2.53;;;;;;;14.72;96.07;101586.53;5013799;28;20551;-73
2023/08/13 02:39:13;;;;;;;5.63;1.98;;;;;;;14.72;95.20;101580.19;5028209;28;20061;-71
2023/08/13 02:41:39;;;;;;;9.30;2.35;;;;;;;14.68;95.04;101582.28;5028117;28;20037;-73
2023/08/13 02:44:04;;;;;;;11.00;3.10;;;;;;;14.66;95.48;101584.28;5030226;28;20038;-73
2023/08/13 02:46:32;;;;;;;5.45;2.30;;;;;;;14.64;95.84;101586.28;5026766;28;20465;-72
2023/08/13 02:48:57;;;;;;;8.88;2.08;;;;;;;14.65;95.35;101587.16;5030254;28;20134;-73
2023/08/13 02:51:26;;;;;;;7.45;1.70;;;;;;;14.62;95.52;101580.03;5029937;28;20029;-73
2023/08/13 02:53:51;;;;;;;5.05;1.95;;;;;;;14.62;95.74;101579.16;5024320;28;20584;-73
2023/08/13 02:56:18;;;;;;;7.65;2.00;;;;;;;14.61;96.13;101578.28;5008392;28;20116;-73
2023/08/13 02:58:44;;;;;;;7.78;2.05;;;;;;;14.60;95.37;101583.91;5008326;28;20103;-73
2023/08/13 03:01:10;;;;;;;6.10;2.28;;;;;;;14.59;95.76;101574.78;5008511;28;20038;-70
2023/08/13 03:03:35;;;;;;;7.75;1.85;;;;;;;14.58;95.74;101574.91;5045607;28;20057;-73
2023/08/13 03:06:01;;;;;;;7.00;2.65;;;;;;;14.56;96.59;101574.16;5028532;28;20111;-73
2023/08/13 03:08:26;;;;;;;15.52;2.65;;;;;;;14.55;95.65;101573.31;5045287;28;20044;-74
2023/08/13 03:10:51;;;;;;;7.50;2.13;;;;;;;14.50;96.37;101575.50;5026910;28;20034;-74
2023/08/13 03:13:17;;;;;;;9.05;2.30;;;;;;;14.50;96.20;101579.13;5029525;28;20484;-72
2023/08/13 03:15:44;;;;;;;7.68;2.25;;;;;;;14.47;96.83;101578.44;5027194;28;20219;-73
2023/08/13 03:18:10;;;;;;;7.38;2.47;;;;;;;14.47;96.69;101578.44;5024774;28;20029;-71
2023/08/13 03:20:38;;;;;;;8.90;2.30;;;;;;;14.46;97.47;101582.19;5027968;28;20029;-73
2023/08/13 03:23:04;;;;;;;10.80;2.33;;;;;;;14.42;96.58;101580.69;5028023;28;20040;-73
2023/08/13 03:25:30;;;;;;;10.30;2.50;;;;;;;14.38;96.83;101580.03;5027360;28;20401;-74
2023/08/13 03:27:56;;;;;;;9.20;2.10;;;;;;;14.35;97.68;101588.47;5027240;28;20034;-73
2023/08/13 03:30:22;;;;;;;8.60;2.25;;;;;;;14.35;97.26;101573.91;5027735;28;20029;-72
2023/08/13 03:32:49;;;;;;;6.15;2.10;;;;;;;14.33;97.63;101576.78;5026631;28;20196;-73
2023/08/13 03:35:19;;;;;;;6.40;2.10;;;;;;;14.31;97.04;101576.00;5028458;28;20021;-73
2023/08/13 03:37:46;;;;;;;6.70;1.88;;;;;;;14.29;96.98;101576.13;5027655;28;20493;-73
2023/08/13 03:40:12;;;;;;;9.15;2.40;;;;;;;14.26;97.51;101573.63;5023125;28;20109;-73
2023/08/13 03:42:37;;;;;;;11.07;2.53;;;;;;;14.23;96.92;101576.59;5007910;28;20034;-73
2023/08/13 03:45:03;;;;;;;4.38;1.88;;;;;;;14.22;98.41;101571.22;4995531;28;20069;-73
2023/08/13 03:47:28;;;;;;;9.05;2.58;;;;;;;14.22;98.74;101576.69;5018576;28;20401;-73
2023/08/13 03:49:53;;;;;;;8.43;2.38;;;;;;;14.19;98.27;101577.81;5026234;28;20069;-73
2023/08/13 03:52:19;;;;;;;10.40;2.45;;;;;;;14.19;98.39;101576.97;5007572;28;20037;-73
2023/08/13 03:54:44;;;;;;;11.63;2.60;;;;;;;14.21;98.15;101580.44;5008083;28;20034;-73
2023/08/13 03:57:09;;;;;;;7.10;2.15;;;;;;;14.21;98.78;101585.91;5007635;28;20083;-71
2023/08/13 03:59:35;;;;;;;6.15;2.15;;;;;;;14.20;98.97;101584.16;5016176;28;20091;-73
2023/08/13 04:02:01;;;;;;;9.43;2.63;;;;;;;14.17;100.00;101587.13;5025859;28;20519;-72
2023/08/13 04:04:27;;;;;;;10.18;2.67;;;;;;;14.19;99.62;101588.78;5027434;28;20041;-72
2023/08/13 04:06:52;;;;;;;7.93;2.42;;;;;;;14.20;98.47;101589.66;5025435;28;20424;-73
2023/08/13 04:09:17;;;;;;;9.45;2.35;;;;;;;14.20;97.86;101586.91;5007381;28;20148;-73
2023/08/13 04:11:43;;;;;;;9.50;2.55;;;;;;;14.20;98.03;101600.59;5008454;28;20034;-73
2023/08/13 04:14:09;;;;;;;10.07;2.38;;;;;;;14.20;97.91;101603.31;5009391;28;20441;-71
2023/08/13 04:16:35;;;;;;;10.82;2.17;;;;;;;14.20;98.16;101593.25;5008829;28;20034;-73
2023/08/13 04:19:00;;;;;;;5.70;2.50;;;;;;;14.21;98.89;101595.00;5007546;28;20033;-73
2023/08/13 04:21:26;;;;;;;6.55;2.30;;;;;;;14.18;98.87;101592.50;5011519;28;20125;-73
2023/08/13 04:23:56;;;;;;;14.90;2.55;;;;;;;14.18;98.55;101595.25;5025936;28;20056;-73
2023/08/13 04:26:23;;;;;;;8.30;2.92;;;;;;;14.19;nan;101590.63;5026514;28;20083;-72
2023/08/13 04:28:49;;;;;;;6.57;2.65;;;;;;;14.18;99.04;101589.78;5034129;28;20087;-73
2023/08/13 04:31:17;;;;;;;6.32;2.50;;;;;;;14.18;99.26;101591.63;5024361;28;20752;-73
2023/08/13 04:33:42;;;;;;;8.32;2.63;;;;;;;14.18;98.48;101592.50;5007329;28;20405;-73
2023/08/13 04:36:08;;;;;;;7.53;2.35;;;;;;;14.20;98.46;101590.50;4991352;28;20462;-73
2023/08/13 04:38:33;;;;;;;9.38;2.78;;;;;;;14.23;98.89;101581.22;4990650;28;20431;-73
2023/08/13 04:41:01;;;;;;;8.77;3.13;;;;;;;14.24;98.76;101588.44;5007983;28;20055;-74
2023/08/13 04:43:27;;;;;;;8.35;2.40;;;;;;;14.25;99.32;101584.69;5012881;28;20539;-72
2023/08/13 04:45:53;;;;;;;9.52;2.22;;;;;;;14.25;99.17;101591.03;5025871;28;20037;-73
2023/08/13 04:48:43;;;;;;;9.05;3.08;;;;;;;14.32;98.86;101593.31;5025825;28;20033;-73
2023/08/13 04:51:10;;;;;;;8.57;2.72;;;;;;;14.33;98.76;101590.47;5026886;28;20401;-71
2023/08/13 04:53:35;;;;;;;6.80;2.15;;;;;;;14.38;99.05;101603.78;5025917;28;20044;-73
2023/08/13 04:56:02;;;;;;;10.55;2.58;;;;;;;14.40;100.00;101602.66;5026017;28;20517;-73
2023/08/13 04:58:27;;;;;;;5.95;2.65;;;;;;;14.42;99.74;101605.31;5025368;28;20045;-73
2023/08/13 05:00:52;;;;;;;11.55;3.20;;;;;;;14.44;99.71;101592.38;5025184;28;20393;-73
2023/08/13 05:03:19;;;;;;;7.45;2.03;;;;;;;14.49;100.00;101591.06;4992047;28;20087;-73
2023/08/13 05:05:45;;;;;;;6.43;2.63;;;;;;;14.54;99.72;101591.56;5006622;28;20492;-73
2023/08/13 05:08:12;;;;;;;7.40;2.47;;;;;;;14.58;99.77;101594.06;5009516;28;20040;-73
2023/08/13 05:10:37;;;;;;;10.75;2.70;;;;;;;14.62;99.09;101588.25;5026998;28;20401;-73
2023/08/13 05:13:04;;;;;;;10.77;3.17;;;;;;;14.68;99.39;101586.88;5025405;28;20117;-72
2023/08/13 05:15:29;;;;;;;8.23;2.58;;;;;;;14.74;98.80;101583.69;5026168;28;20156;-73
2023/08/13 05:17:54;;;;;;;5.45;2.55;;;;;;;14.76;99.21;101588.03;5008649;28;20033;-73
2023/08/13 05:20:20;;;;;;;15.23;2.95;;;;;;;14.79;99.29;101579.59;5006419;28;20474;-73
2023/08/13 05:22:46;;;;;;;9.18;2.80;;;;;;;14.82;100.00;101581.19;5007628;28;20394;-73
2023/08/13 05:25:11;;;;;;;6.72;2.33;;;;;;;14.82;99.40;101592.16;4990289;28;20516;-73
2023/08/13 05:27:36;;;;;;;9.43;2.53;;;;;;;14.87;99.24;101587.19;5006221;28;20046;-73
2023/08/13 05:30:02;;;;;;;9.75;3.05;;;;;;;14.89;100.00;101598.91;5007713;28;20512;-72
2023/08/13 05:32:28;;;;;;;6.28;2.67;;;;;;;14.94;98.24;101599.41;4990033;28;20592;-73
2023/08/13 05:34:54;;;;;;;10.40;2.50;;;;;;;14.97;99.27;101599.19;5006441;28;20284;-73
2023/08/13 05:37:20;;;;;;;11.40;3.45;;;;;;;15.02;98.75;101605.19;5006302;28;20477;-73
2023/08/13 05:39:45;;;;;;;11.27;3.30;;;;;;;15.07;99.05;101601.22;5023572;28;20053;-72
2023/08/13 05:42:10;;;;;;;14.88;3.85;;;;;;;15.09;99.21;101604.69;5025515;28;20057;-70
2023/08/13 05:44:36;;;;;;;10.57;2.63;;;;;;;15.08;99.09;101602.94;5014698;28;20041;-70
2023/08/13 05:47:02;;;;;;;12.57;3.88;;;;;;;15.11;99.34;101598.09;5021207;28;20460;-70
2023/08/13 05:49:27;;;;;;;9.82;3.30;;;;;;;15.22;99.54;101600.84;5027359;28;20107;-71
2023/08/13 05:51:53;;;;;;;17.13;3.17;;;;;;;15.28;98.74;101605.81;5025877;28;20079;-70
2023/08/13 05:54:18;;;;;;;9.30;3.15;;;;;;;15.34;98.88;101607.22;5013631;28;20061;-75
2023/08/13 05:56:43;;;;;;;10.70;3.25;;;;;;;15.40;99.45;101606.72;5007095;28;20041;-74
2023/08/13 05:59:09;;;;;;;8.70;3.58;;;;;;;15.45;97.89;101609.97;5006225;28;20042;-74
2023/08/13 06:01:34;;;;;;;11.43;3.35;;;;;;;15.50;98.79;101610.47;5008680;28;20040;-74
2023/08/13 06:04:01;;;;;;;12.35;3.50;;;;;;;15.55;98.37;101610.97;5027394;28;20041;-75
2023/08/13 06:06:27;;;;;;;7.53;2.72;;;;;;;15.58;98.29;101596.13;5027002;28;20064;-74
2023/08/13 06:08:54;;;;;;;10.23;3.67;;;;;;;15.66;98.11;101614.72;5026061;28;20084;-74
2023/08/13 06:11:19;;;;;;;12.90;3.50;;;;;;;15.71;97.75;101618.84;5026507;28;20029;-74
2023/08/13 06:13:44;;;;;;;14.15;3.13;;;;;;;15.75;96.53;101623.06;5028596;28;20045;-74
2023/08/13 06:16:10;;;;;;;9.60;3.25;;;;;;;15.77;96.09;101622.97;5009908;28;20072;-72
2023/08/13 06:18:35;;;;;;;12.80;3.53;;;;;;;15.83;97.14;101619.72;5012187;28;20041;-74
2023/08/13 06:21:02;;;;;;;13.85;3.78;;;;;;;15.94;97.06;101607.84;5011182;28;20072;-74
2023/08/13 06:23:27;;;;;;;9.77;3.13;;;;;;;16.07;96.79;101616.81;5010901;28;20324;-73
2023/08/13 06:25:53;;;;;;;10.25;3.72;;;;;;;16.21;96.13;101615.66;5010387;28;20476;-74
2023/08/13 06:28:18;;;;;;;10.13;3.17;;;;;;;16.32;95.88;101608.28;5024188;28;20041;-72
2023/08/13 06:30:44;;;;;;;9.00;2.70;;;;;;;16.43;94.61;101610.09;5044397;28;20042;-75
2023/08/13 06:33:10;;;;;;;7.78;2.90;;;;;;;16.48;94.78;101612.44;5013669;28;20045;-73
2023/08/13 06:35:35;;;;;;;10.57;3.30;;;;;;;16.54;94.24;101612.78;5010435;28;20491;-75
2023/08/13 06:38:00;;;;;;;12.50;3.33;;;;;;;16.59;94.17;101610.50;5010671;28;20489;-74
2023/08/13 06:40:26;;;;;;;14.40;3.15;;;;;;;16.63;94.10;101615.75;5010626;28;20402;-74
2023/08/13 06:42:51;;;;;;;8.65;2.83;;;;;;;16.81;95.61;101616.97;5008550;28;20375;-74
2023/08/13 06:45:17;;;;;;;13.20;2.95;;;;;;;17.01;94.06;101621.56;5022222;28;20028;-74
2023/08/13 06:47:42;;;;;;;12.32;2.85;;;;;;;17.14;89.81;101618.63;5010028;28;20042;-75
2023/08/13 06:50:08;;;;;;;12.77;3.10;;;;;;;17.23;93.45;101619.72;5011153;28;20042;-74
2023/08/13 06:52:33;;;;;;;10.20;3.30;;;;;;;17.35;92.71;101621.38;5010435;28;20026;-74
2023/08/13 06:54:58;;;;;;;11.20;2.92;;;;;;;17.41;90.14;101619.97;5010461;28;20256;-73
2023/08/13 06:57:24;;;;;;;7.32;3.17;;;;;;;17.50;91.46;101620.00;5009903;28;20042;-74
2023/08/13 06:59:49;;;;;;;12.68;3.53;;;;;;;17.59;91.12;101618.31;5008980;28;20061;-74
2023/08/13 07:02:15;;;;;;;9.13;2.90;;;;;;;17.70;91.68;101609.94;5010165;28;20030;-74
2023/08/13 07:04:40;;;;;;;8.90;2.33;;;;;;;17.86;90.80;101612.22;5010302;28;20080;-75
2023/08/13 07:07:06;;;;;;;8.57;2.55;;;;;;;17.99;88.69;101609.22;5010797;28;20065;-75
2023/08/13 07:09:31;;;;;;;9.30;2.72;;;;;;;18.12;88.84;101601.56;5018202;28;20041;-74
2023/08/13 07:11:56;;;;;;;7.70;2.60;;;;;;;18.28;88.85;101606.53;5028478;28;20029;-74
2023/08/13 07:14:22;;;;;;;12.10;3.10;;;;;;;18.41;88.13;101618.13;5008454;28;20482;-74
2023/08/13 07:16:47;;;;;;;12.82;2.70;;;;;;;18.56;89.12;101607.59;5009650;28;20761;-75
2023/08/13 07:19:12;;;;;;;11.88;2.80;;;;;;;18.63;85.60;101608.72;5010104;28;20046;-74
2023/08/13 07:21:38;;;;;;;8.02;2.85;;;;;;;18.73;87.41;101609.63;5010193;28;20132;-74
2023/08/13 07:24:04;;;;;;;11.15;2.55;;;;;;;18.86;85.75;101601.06;5027462;28;20022;-74
2023/08/13 07:26:30;;;;;;;7.68;2.33;;;;;;;19.08;87.83;101600.75;5027834;28;20511;-75
2023/08/13 07:28:55;;;;;;;11.10;2.38;;;;;;;19.20;84.37;101604.19;5027292;28;20044;-74
2023/08/13 07:31:21;;;;;;;9.80;2.35;;;;;;;19.35;84.89;101610.09;5026138;28;20041;-74
2023/08/13 07:33:46;;;;;;;9.07;2.50;;;;;;;19.51;85.40;101602.09;5009930;28;20042;-75
2023/08/13 07:36:12;;;;;;;11.13;2.38;;;;;;;19.61;84.64;101607.59;5020411;28;20397;-74
2023/08/13 07:38:37;;;;;;;11.43;2.72;;;;;;;19.76;83.44;101600.53;5028553;28;20714;-74
2023/08/13 07:41:03;;;;;;;10.48;2.30;;;;;;;19.93;84.11;101604.41;5044130;28;20045;-74
2023/08/13 07:43:30;;;;;;;9.18;2.25;;;;;;;20.07;82.64;101603.00;5017171;28;20455;-74
2023/08/13 07:45:56;;;;;;;9.82;2.47;;;;;;;20.16;82.70;101598.47;5043728;28;20033;-74
2023/08/13 07:48:21;;;;;;;8.57;2.20;;;;;;;20.29;82.22;101601.72;5011613;28;20411;-75
2023/08/13 07:50:46;;;;;;;10.02;2.70;;;;;;;20.47;80.92;101612.75;5009371;28;20041;-74
2023/08/13 07:53:12;;;;;;;9.38;2.38;;;;;;;20.63;81.68;101615.75;5009562;28;20030;-74
2023/08/13 07:55:38;;;;;;;8.70;2.17;;;;;;;20.68;79.17;101602.31;5009952;28;20038;-73
2023/08/13 07:58:03;;;;;;;11.55;2.50;;;;;;;20.66;78.35;101603.47;5008405;28;20057;-74
2023/08/13 08:00:28;;;;;;;9.43;2.30;;;;;;;20.79;80.47;101598.41;5008383;28;20573;-74
2023/08/13 08:02:54;;;;;;;9.73;2.20;;;;;;;21.05;80.67;101598.47;5008842;28;20057;-74
2023/08/13 08:05:22;;;;;;;7.03;2.05;;;;;;;21.11;77.37;101593.16;5007717;28;20030;-74
2023/08/13 08:07:48;;;;;;;5.75;2.03;;;;;;;21.14;76.83;101592.84;5008829;28;20025;-73
2023/08/13 08:10:13;;;;;;;8.20;2.00;;;;;;;21.26;76.74;101603.63;5007753;28;20056;-74
2023/08/13 08:12:39;;;;;;;9.23;2.20;;;;;;;21.43;78.02;101608.28;5007726;28;20034;-74
2023/08/13 08:15:05;;;;;;;11.23;2.22;;;;;;;21.65;74.67;101598.56;5007811;28;20026;-74
2023/08/13 08:17:31;;;;;;;9.02;2.00;;;;;;;21.75;77.24;101603.97;5018411;28;20041;-74
2023/08/13 08:19:56;;;;;;;11.35;2.45;;;;;;;21.83;74.14;101606.78;5028682;28;20083;-74
2023/08/13 08:22:22;;;;;;;10.20;2.40;;;;;;;21.89;72.99;101604.19;5028506;28;20030;-74
2023/08/13 08:24:47;;;;;;;5.88;2.10;;;;;;;21.79;72.30;101592.38;5025885;28;20123;-74
2023/08/13 08:27:13;;;;;;;11.30;1.90;;;;;;;21.89;74.41;101604.19;5027925;28;20095;-74
2023/08/13 08:29:38;;;;;;;7.20;1.95;;;;;;;21.86;72.50;101603.66;5028946;28;20102;-74
2023/08/13 08:32:03;;;;;;;10.07;1.98;;;;;;;21.84;71.79;101595.53;5013266;28;20354;-74
2023/08/13 08:34:30;;;;;;;6.78;2.25;;;;;;;21.88;73.13;101602.47;5009070;28;20081;-74
2023/08/13 08:36:55;;;;;;;9.07;1.77;;;;;;;21.95;72.72;101604.56;4990915;28;20026;-74
2023/08/13 08:39:21;;;;;;;8.13;2.50;;;;;;;21.97;71.49;101594.22;5007565;28;20037;-74
2023/08/13 08:41:47;;;;;;;11.30;2.13;;;;;;;22.11;72.53;101602.78;5008327;28;20029;-74
2023/08/13 08:44:20;;;;;;;11.38;2.00;;;;;;;22.28;73.67;101594.50;5018453;28;20044;-74
2023/08/13 08:46:49;;;;;;;11.00;1.92;;;;;;;22.29;72.50;101582.34;5023595;28;20038;-74
2023/08/13 08:49:16;;;;;;;5.35;1.80;;;;;;;22.25;68.82;101587.41;5008656;28;20029;-74
2023/08/13 08:51:41;;;;;;;9.25;2.30;;;;;;;22.20;70.83;101591.72;5008554;28;20041;-73
2023/08/13 08:54:07;;;;;;;9.30;2.03;;;;;;;22.28;69.81;101592.59;5009216;28;20034;-74
2023/08/13 08:56:32;;;;;;;5.10;1.73;;;;;;;22.37;70.61;101586.03;5007852;28;20068;-73
2023/08/13 08:58:57;;;;;;;7.28;1.98;;;;;;;22.39;69.53;101580.31;5008243;28;20072;-74
2023/08/13 09:01:23;;;;;;;7.30;2.60;;;;;;;22.52;71.02;101590.91;5008072;28;20125;-74
2023/08/13 09:03:48;;;;;;;8.23;2.08;;;;;;;22.72;71.44;101591.47;5007302;28;20045;-74
2023/08/13 09:06:14;;;;;;;8.20;2.47;;;;;;;22.67;68.32;101580.88;5008411;28;20038;-73
2023/08/13 09:08:39;;;;;;;8.98;2.25;;;;;;;22.58;67.96;101576.38;5008585;28;20119;-75
2023/08/13 09:11:05;;;;;;;7.53;2.05;;;;;;;22.64;68.17;101576.53;5023363;28;20045;-73
2023/08/13 09:13:33;;;;;;;6.60;2.28;;;;;;;22.64;70.23;101565.44;5027849;28;20435;-73
2023/08/13 09:15:58;;;;;;;8.82;2.30;;;;;;;22.58;71.40;101568.91;5040852;28;20416;-74
2023/08/13 09:18:24;;;;;;;6.53;1.77;;;;;;;22.58;66.26;101568.91;5010263;28;20033;-73
2023/08/13 09:20:49;;;;;;;6.90;2.17;;;;;;;22.67;69.17;101565.09;5006892;28;20029;-74
2023/08/13 09:23:23;;;;;;;9.35;2.20;;;;;;;22.96;67.88;101568.41;5007981;28;20048;-74
2023/08/13 09:25:53;;;;;;;9.15;2.28;;;;;;;23.14;67.21;101553.31;5007563;28;20053;-74
2023/08/13 09:28:18;;;;;;;11.88;2.63;;;;;;;23.35;66.48;101558.28;5008002;28;20053;-73
2023/08/13 09:30:44;;;;;;;8.60;2.08;;;;;;;23.68;64.83;101555.44;5007889;28;20042;-74
2023/08/13 09:33:09;;;;;;;6.72;2.20;;;;;;;23.90;64.64;101559.34;5008064;28;20464;-74
2023/08/13 09:35:35;;;;;;;7.35;2.22;;;;;;;23.93;62.57;101550.66;5007023;28;20045;-74
2023/08/13 09:38:01;;;;;;;10.80;1.80;;;;;;;24.04;61.68;101553.00;5007504;28;20494;-72
2023/08/13 09:40:26;;;;;;;6.63;1.88;;;;;;;24.06;62.97;101548.16;5025627;28;20041;-73
2023/08/13 09:42:55;;;;;;;6.80;2.55;;;;;;;24.13;63.97;101545.47;5021852;28;20018;-73
2023/08/13 09:45:22;;;;;;;6.75;2.25;;;;;;;24.10;61.69;101541.13;5026720;28;20037;-73
2023/08/13 09:47:49;;;;;;;6.65;2.25;;;;;;;23.92;59.98;101535.88;5011355;28;20033;-73
2023/08/13 09:50:17;;;;;;;7.97;2.35;;;;;;;23.76;59.54;101526.75;5011634;28;20114;-73
2023/08/13 09:52:46;;;;;;;7.07;1.90;;;;;;;23.89;63.76;101530.69;5025564;28;20104;-73
2023/08/13 09:55:13;;;;;;;4.53;1.73;;;;;;;24.13;62.78;101531.59;5045032;28;20374;-72
2023/08/13 09:57:41;;;;;;;5.95;1.80;;;;;;;24.58;63.62;101529.91;5030899;28;20041;-72
2023/08/13 10:00:11;;;;;;;8.15;2.55;;;;;;;24.84;63.37;101535.94;5031804;28;20771;-74
2023/08/13 10:02:42;;;;;;;7.93;1.95;;;;;;;24.97;60.22;101528.88;5018941;28;20026;-73
2023/08/13 10:05:08;;;;;;;6.88;2.08;;;;;;;25.05;60.28;101523.22;5012689;28;20042;-72
2023/08/13 10:07:35;;;;;;;8.45;2.10;;;;;;;25.24;60.70;101528.25;5031019;28;20044;-74
2023/08/13 10:10:02;;;;;;;6.90;2.00;;;;;;;25.38;61.14;101530.19;5030832;28;20084;-73
2023/08/13 10:12:29;;;;;;;7.32;2.40;;;;;;;25.13;56.27;101528.72;5028355;28;20067;-73
2023/08/13 10:14:55;;;;;;;11.07;1.88;;;;;;;24.95;56.71;101523.50;5030732;28;20042;-73
2023/08/13 10:17:23;;;;;;;12.27;2.30;;;;;;;24.79;54.43;101518.94;5021587;28;20041;-72
2023/08/13 10:19:49;;;;;;;13.98;2.40;;;;;;;24.73;56.74;101522.47;5011522;28;20463;-73
2023/08/13 10:22:22;;;;;;;6.68;1.90;;;;;;;24.92;58.73;101519.16;5009499;28;20497;-72
2023/08/13 10:24:48;;;;;;;9.48;2.17;;;;;;;24.76;55.79;101519.31;5009385;28;20167;-73
2023/08/13 10:27:13;;;;;;;5.88;2.10;;;;;;;24.70;56.06;101522.84;5010240;28;20698;-72
2023/08/13 10:29:42;;;;;;;6.10;1.73;;;;;;;24.65;57.77;101517.81;5008545;28;20021;-73
2023/08/13 10:32:15;;;;;;;10.43;2.53;;;;;;;24.56;59.26;101515.31;5011512;28;20068;-72
2023/08/13 10:34:51;;;;;;;8.07;2.10;;;;;;;24.47;58.78;101520.06;5030275;28;20061;-73
2023/08/13 10:37:19;;;;;;;10.38;2.35;;;;;;;24.52;58.93;101523.16;5026562;28;20084;-72
2023/08/13 10:39:47;;;;;;;16.08;2.83;;;;;;;24.35;57.93;101515.97;5010510;28;20049;-72
2023/08/13 10:42:27;;;;;;;8.07;2.40;;;;;;;24.31;60.08;101514.59;5025932;28;20419;-73
2023/08/13 10:44:54;;;;;;;7.00;2.00;;;;;;;24.69;61.38;101512.75;5024411;28;20051;-72
2023/08/13 10:47:22;;;;;;;6.53;2.10;;;;;;;24.99;59.73;101512.81;5023456;28;20047;-72
2023/08/13 10:49:48;;;;;;;6.82;2.10;;;;;;;25.51;60.74;101515.59;5030378;28;20037;-72
2023/08/13 10:52:14;;;;;;;8.55;2.28;;;;;;;25.76;58.51;101505.03;5014765;28;20083;-72
2023/08/13 10:54:39;;;;;;;6.50;1.83;;;;;;;26.00;57.71;101500.16;5029960;28;20572;-71
2023/08/13 10:57:05;;;;;;;5.68;1.85;;;;;;;26.22;54.69;101501.06;5011195;28;20046;-71
2023/08/13 10:59:32;;;;;;;8.63;2.22;;;;;;;26.27;53.23;101501.31;5008412;28;20459;-73
2023/08/13 11:02:19;;;;;;;11.35;2.42;;;;;;;26.25;56.60;101500.63;5009773;28;20497;-71
2023/08/13 11:04:46;;;;;;;10.43;2.40;;;;;;;26.24;52.01;101501.72;5010423;28;20045;-74
2023/08/13 11:07:13;;;;;;;7.97;2.17;;;;;;;26.72;51.67;101491.72;5010020;28;20114;-72
2023/08/13 11:09:38;;;;;;;9.35;1.80;;;;;;;26.76;53.24;101495.78;5010671;28;20450;-72
2023/08/13 11:12:07;;;;;;;7.80;2.10;;;;;;;26.79;54.16;101494.53;5013143;28;20125;-72
2023/08/13 11:14:32;;;;;;;9.95;2.30;;;;;;;26.92;53.74;101487.13;5027516;28;20461;-73
2023/08/13 11:16:58;;;;;;;8.25;2.30;;;;;;;26.86;50.74;101492.66;5024250;28;20030;-73
2023/08/13 11:19:24;;;;;;;5.30;2.22;;;;;;;26.66;51.89;101493.34;5010299;28;20046;-72